Shovel Lake, Minnesota
Current Conditions -  °F | °C
As of 12:55 PM on Sunday 23 Nov 2014 (Local Time) from KGPZ Reporting Station
Overcast Overcast  
Wind Chill: 36°   Ceiling: 500
Heat Index: 36°   Visibility: 3mi
Dew Point: 34°   Wind: 0mph
Humidity: 93%   Direction: NA
Pressure: 29.4"   Gusts: NA
Location:  46.9367°N, 93.6827°W
Report Text: KGPZ 231855Z AUTO 00000KT 3SM OVC005 02/01 A2940 RMK AO1
Loading
Personal Weather Stations






























Interactive Weather Map New forecast layout! Learn more

10-Day Weather Forecast

Advertisements
Track Severe Weather on mobile